createdAt,value
2023-10-24T00:00:43.907Z,11.45
2023-10-24T00:03:10.404Z,11.68
2023-10-24T00:05:37.066Z,12.55
2023-10-24T00:08:03.631Z,13.00
2023-10-24T00:10:31.616Z,13.20
2023-10-24T00:12:58.089Z,12.40
2023-10-24T00:15:24.636Z,13.50
2023-10-24T00:17:51.146Z,17.48
2023-10-24T00:20:17.920Z,12.02
2023-10-24T00:22:44.483Z,13.52
2023-10-24T00:25:11.334Z,13.30
2023-10-24T00:27:37.858Z,11.98
2023-10-24T00:30:04.754Z,14.10
2023-10-24T00:32:31.315Z,11.70
2023-10-24T00:34:57.806Z,11.35
2023-10-24T00:37:24.372Z,12.75
2023-10-24T00:39:50.846Z,11.98
2023-10-24T00:42:17.295Z,15.30
2023-10-24T00:44:43.750Z,10.70
2023-10-24T00:47:10.719Z,9.95
2023-10-24T00:49:37.235Z,11.27
2023-10-24T00:52:04.022Z,10.35
2023-10-24T00:54:32.813Z,11.40
2023-10-24T00:56:59.724Z,13.90
2023-10-24T00:59:27.746Z,16.90
2023-10-24T01:01:55.153Z,12.32
2023-10-24T01:04:23.484Z,11.35
2023-10-24T01:06:49.972Z,15.45
2023-10-24T01:09:16.727Z,12.02
2023-10-24T01:11:43.435Z,12.02
2023-10-24T01:14:09.927Z,12.20
2023-10-24T01:16:44.561Z,13.60
2023-10-24T01:19:14.973Z,12.50
2023-10-24T01:21:46.679Z,13.03
2023-10-24T01:24:18.191Z,12.68
2023-10-24T01:26:45.499Z,13.82
2023-10-24T01:29:12.510Z,15.32
2023-10-24T01:31:39.205Z,13.52
2023-10-24T01:34:05.875Z,14.55
2023-10-24T01:36:32.555Z,11.88
2023-10-24T01:38:59.043Z,13.05
2023-10-24T01:41:25.560Z,11.15
2023-10-24T01:43:52.864Z,11.50
2023-10-24T01:46:19.471Z,10.93
2023-10-24T01:48:46.068Z,11.27
2023-10-24T01:51:12.581Z,15.30
2023-10-24T01:53:39.055Z,12.18
2023-10-24T01:56:05.540Z,12.13
2023-10-24T01:58:32.136Z,13.95
2023-10-24T02:00:58.747Z,14.02
2023-10-24T02:03:25.344Z,10.30
2023-10-24T02:05:51.893Z,10.82
2023-10-24T02:08:18.390Z,14.57
2023-10-24T02:10:45.012Z,10.02
2023-10-24T02:13:11.926Z,10.38
2023-10-24T02:15:38.648Z,12.55
2023-10-24T02:18:05.391Z,11.65
2023-10-24T02:20:31.934Z,11.93
2023-10-24T02:22:58.430Z,13.50
2023-10-24T02:25:24.917Z,16.70
2023-10-24T02:27:53.591Z,16.05
2023-10-24T02:30:20.152Z,12.43
2023-10-24T02:32:46.764Z,14.18
2023-10-24T02:35:13.317Z,15.18
2023-10-24T02:37:39.880Z,12.85
2023-10-24T02:40:09.160Z,15.43
2023-10-24T02:42:36.024Z,12.90
2023-10-24T02:45:02.572Z,12.43
2023-10-24T02:47:29.138Z,14.32
2023-10-24T02:49:56.217Z,15.15
2023-10-24T02:52:22.750Z,14.25
2023-10-24T02:54:50.221Z,13.82
2023-10-24T02:57:17.619Z,15.55
2023-10-24T02:59:44.087Z,11.77
2023-10-24T03:02:10.574Z,12.30
2023-10-24T03:04:37.182Z,13.90
2023-10-24T03:07:04.223Z,13.18
2023-10-24T03:09:30.682Z,14.65
2023-10-24T03:11:57.138Z,15.52
2023-10-24T03:14:23.603Z,16.45
2023-10-24T03:16:50.284Z,14.00
2023-10-24T03:19:17.040Z,13.02
2023-10-24T03:21:43.567Z,11.68
2023-10-24T03:24:10.357Z,11.88
2023-10-24T03:26:37.573Z,13.70
2023-10-24T03:29:04.203Z,15.38
2023-10-24T03:31:31.459Z,15.65
2023-10-24T03:33:58.081Z,13.05
2023-10-24T03:36:24.799Z,16.13
2023-10-24T03:38:51.265Z,14.68
2023-10-24T03:41:18.000Z,18.55
2023-10-24T03:43:49.446Z,13.95
2023-10-24T03:46:16.384Z,13.45
2023-10-24T03:48:43.129Z,15.00
2023-10-24T03:51:09.663Z,12.25
2023-10-24T03:53:36.176Z,13.13
2023-10-24T03:56:02.674Z,13.38
2023-10-24T03:58:29.324Z,12.20
2023-10-24T04:00:56.090Z,15.50
2023-10-24T04:03:23.131Z,14.60
2023-10-24T04:05:49.842Z,13.18
2023-10-24T04:08:16.474Z,12.15
2023-10-24T04:10:43.077Z,12.57
2023-10-24T04:13:09.604Z,11.48
2023-10-24T04:15:37.367Z,14.15
2023-10-24T04:18:04.852Z,15.18
2023-10-24T04:20:34.486Z,12.02
2023-10-24T04:23:03.712Z,12.98
2023-10-24T04:25:31.507Z,14.05
2023-10-24T04:27:58.897Z,15.43
2023-10-24T04:30:27.186Z,15.10
2023-10-24T04:32:53.809Z,11.63
2023-10-24T04:35:20.301Z,14.40
2023-10-24T04:37:48.931Z,12.63
2023-10-24T04:40:15.898Z,14.10
2023-10-24T04:42:42.563Z,10.60
2023-10-24T04:45:09.490Z,9.55
2023-10-24T04:47:36.028Z,11.20
2023-10-24T04:50:04.627Z,9.90
2023-10-24T04:52:31.141Z,10.98
2023-10-24T04:54:57.678Z,10.90
2023-10-24T04:57:24.110Z,12.73
2023-10-24T04:59:50.608Z,11.48
2023-10-24T05:02:17.158Z,12.20
2023-10-24T05:04:43.801Z,10.65
2023-10-24T05:07:10.677Z,13.52
2023-10-24T05:09:37.257Z,13.40
2023-10-24T05:12:04.373Z,11.27
2023-10-24T05:14:30.819Z,13.05
2023-10-24T05:16:57.332Z,13.32
2023-10-24T05:19:23.896Z,13.57
2023-10-24T05:21:50.396Z,15.35
2023-10-24T05:24:16.933Z,20.35
2023-10-24T05:26:43.442Z,11.15
2023-10-24T05:29:09.927Z,12.57
2023-10-24T05:31:36.806Z,13.65
2023-10-24T05:34:03.398Z,12.57
2023-10-24T05:36:29.864Z,15.38
2023-10-24T05:38:56.825Z,12.52
2023-10-24T05:41:23.363Z,11.60
2023-10-24T05:43:50.272Z,13.13
2023-10-24T05:46:16.898Z,15.68
2023-10-24T05:48:43.475Z,15.00
2023-10-24T05:51:13.136Z,16.17
2023-10-24T05:53:39.966Z,16.95
2023-10-24T05:56:06.982Z,13.20
2023-10-24T05:58:33.718Z,13.23
2023-10-24T06:01:00.461Z,17.63
2023-10-24T06:03:27.663Z,12.70
2023-10-24T06:05:54.389Z,25.30
2023-10-24T06:08:20.930Z,15.07
2023-10-24T06:10:58.308Z,14.98
2023-10-24T06:13:25.809Z,17.63
2023-10-24T06:15:52.661Z,17.00
2023-10-24T06:18:20.138Z,13.32
2023-10-24T06:20:47.974Z,14.20
2023-10-24T06:23:15.055Z,14.65
2023-10-24T06:25:42.380Z,14.68
2023-10-24T06:28:09.850Z,17.88
2023-10-24T06:30:36.896Z,15.43
2023-10-24T06:33:03.892Z,17.27
2023-10-24T06:35:30.701Z,15.50
2023-10-24T06:37:58.030Z,16.65
2023-10-24T06:40:24.884Z,15.40
2023-10-24T06:42:52.577Z,16.00
2023-10-24T06:45:19.212Z,17.10
2023-10-24T06:47:45.820Z,16.33
2023-10-24T06:50:12.490Z,13.77
2023-10-24T06:52:39.527Z,16.63
2023-10-24T06:55:06.608Z,13.27
2023-10-24T06:57:33.173Z,14.73
2023-10-24T06:59:59.620Z,11.25
2023-10-24T07:02:26.357Z,11.45
2023-10-24T07:04:53.005Z,11.05
2023-10-24T07:07:20.464Z,10.82
2023-10-24T07:09:47.199Z,12.10
2023-10-24T07:12:13.681Z,15.85
2023-10-24T07:14:40.369Z,12.43
2023-10-24T07:17:06.952Z,12.23
2023-10-24T07:19:33.548Z,11.20
2023-10-24T07:22:00.066Z,12.75
2023-10-24T07:24:26.526Z,12.20
2023-10-24T07:26:53.094Z,12.77
2023-10-24T07:29:19.623Z,12.80
2023-10-24T07:31:46.168Z,15.13
2023-10-24T07:34:12.697Z,12.18
2023-10-24T07:36:39.178Z,16.17
2023-10-24T07:39:06.766Z,13.93
2023-10-24T07:41:33.306Z,13.13
2023-10-24T07:44:00.701Z,12.07
2023-10-24T07:46:28.711Z,12.13
2023-10-24T07:48:55.342Z,11.75
2023-10-24T07:51:21.924Z,12.13
2023-10-24T07:53:48.417Z,11.32
2023-10-24T07:56:15.248Z,11.98
2023-10-24T07:58:41.804Z,14.60
2023-10-24T08:01:08.897Z,13.90
2023-10-24T08:03:35.570Z,14.40
2023-10-24T08:06:02.151Z,12.10
2023-10-24T08:08:28.713Z,11.48
2023-10-24T08:10:55.363Z,16.20
2023-10-24T08:13:22.214Z,17.20
2023-10-24T08:15:52.995Z,14.32
2023-10-24T08:18:19.986Z,9.18
2023-10-24T08:20:46.520Z,14.38
2023-10-24T08:23:13.866Z,11.55
2023-10-24T08:25:41.098Z,10.45
2023-10-24T08:28:07.912Z,8.88
2023-10-24T08:30:35.052Z,11.48
2023-10-24T08:33:01.890Z,11.18
2023-10-24T08:35:28.662Z,15.68
2023-10-24T08:37:55.462Z,11.65
2023-10-24T08:40:22.203Z,11.63
2023-10-24T08:42:48.797Z,10.18
2023-10-24T08:45:19.047Z,11.25
2023-10-24T08:47:49.040Z,10.30
2023-10-24T08:50:15.885Z,10.47
2023-10-24T08:52:45.317Z,11.75
2023-10-24T08:55:12.819Z,11.35
2023-10-24T08:57:44.204Z,12.07
2023-10-24T09:00:13.140Z,10.40
2023-10-24T09:02:42.195Z,9.98
2023-10-24T09:05:13.249Z,10.18
2023-10-24T09:07:39.922Z,16.77
2023-10-24T09:10:07.466Z,24.70
2023-10-24T09:12:35.710Z,17.65
2023-10-24T09:15:02.831Z,22.95
2023-10-24T09:17:32.004Z,42.00
2023-10-24T09:19:59.341Z,20.65
2023-10-24T09:22:28.524Z,11.95
2023-10-24T09:24:58.501Z,13.25
2023-10-24T09:27:25.978Z,12.73
2023-10-24T09:29:53.029Z,19.70
2023-10-24T09:32:21.487Z,14.65
2023-10-24T09:34:49.469Z,11.90
2023-10-24T09:37:17.319Z,13.60
2023-10-24T09:39:52.647Z,11.13
2023-10-24T09:42:27.719Z,14.10
2023-10-24T09:45:01.713Z,11.35
2023-10-24T09:47:29.056Z,13.18
2023-10-24T09:49:57.058Z,30.63
2023-10-24T09:52:26.959Z,44.20
2023-10-24T09:54:54.220Z,35.38
2023-10-24T09:57:22.536Z,88.15
2023-10-24T09:59:57.425Z,41.38
2023-10-24T10:02:25.633Z,14.15
2023-10-24T10:04:52.432Z,10.77
2023-10-24T10:07:21.589Z,12.13
2023-10-24T10:09:51.489Z,11.88
2023-10-24T10:12:20.975Z,11.73
2023-10-24T10:15:09.086Z,10.48
2023-10-24T10:17:58.495Z,10.40
2023-10-24T10:20:47.150Z,11.40
2023-10-24T10:23:29.275Z,9.77
2023-10-24T10:26:20.056Z,8.77
2023-10-24T10:28:56.650Z,8.70
2023-10-24T10:32:38.125Z,8.38
2023-10-24T10:37:07.170Z,12.40
2023-10-24T10:39:33.913Z,9.40
2023-10-24T10:42:00.408Z,10.02
2023-10-24T10:44:44.775Z,9.55
2023-10-24T10:47:16.951Z,10.35
2023-10-24T10:49:49.644Z,8.90
2023-10-24T10:52:23.098Z,8.40
2023-10-24T10:55:00.258Z,5.75
2023-10-24T10:57:31.080Z,7.55
2023-10-24T11:00:05.913Z,7.68
2023-10-24T11:02:32.434Z,5.88
2023-10-24T11:04:59.026Z,5.53
2023-10-24T11:07:51.631Z,6.28
2023-10-24T11:10:19.377Z,5.28
2023-10-24T11:12:49.649Z,5.63
2023-10-24T11:15:18.011Z,7.07
2023-10-24T11:17:47.214Z,5.88
2023-10-24T11:20:22.373Z,7.47
2023-10-24T11:22:50.826Z,6.10
2023-10-24T11:25:17.979Z,5.35
2023-10-24T11:27:45.327Z,8.35
2023-10-24T11:30:12.271Z,6.43
2023-10-24T11:32:38.940Z,6.97
2023-10-24T11:35:06.112Z,6.30
2023-10-24T11:37:33.323Z,11.85
2023-10-24T11:40:00.217Z,5.82
2023-10-24T11:42:28.001Z,6.47
2023-10-24T11:44:54.633Z,5.88
2023-10-24T11:47:21.309Z,6.20
2023-10-24T11:49:48.279Z,6.30
2023-10-24T11:52:15.050Z,5.05
2023-10-24T11:54:41.752Z,4.65
2023-10-24T11:57:08.736Z,6.63
2023-10-24T11:59:36.456Z,7.00
2023-10-24T12:02:04.647Z,10.68
2023-10-24T12:04:32.385Z,8.07
2023-10-24T12:07:09.111Z,7.22
2023-10-24T12:09:36.648Z,6.28
2023-10-24T12:12:06.608Z,5.15
2023-10-24T12:14:36.262Z,7.10
2023-10-24T12:17:02.841Z,8.48
2023-10-24T12:19:29.456Z,6.22
2023-10-24T12:21:56.159Z,5.40
2023-10-24T12:24:22.781Z,6.05
2023-10-24T12:26:49.620Z,6.53
2023-10-24T12:29:16.113Z,6.45
2023-10-24T12:31:42.802Z,7.00
2023-10-24T12:34:09.599Z,7.40
2023-10-24T12:36:36.197Z,5.47
2023-10-24T12:39:02.787Z,6.72
2023-10-24T12:41:30.398Z,5.95
2023-10-24T12:43:57.106Z,6.20
2023-10-24T12:46:23.756Z,5.60
2023-10-24T12:49:00.962Z,5.03
2023-10-24T12:51:29.198Z,5.05
2023-10-24T12:53:55.838Z,6.18
2023-10-24T12:56:22.372Z,6.00
2023-10-24T12:58:51.649Z,6.43
2023-10-24T13:01:20.165Z,6.53
2023-10-24T13:03:49.105Z,6.20
2023-10-24T13:06:15.895Z,5.75
2023-10-24T13:08:42.530Z,6.57
2023-10-24T13:11:09.270Z,8.20
2023-10-24T13:13:36.094Z,6.88
2023-10-24T13:16:03.001Z,7.13
2023-10-24T13:18:29.600Z,7.53
2023-10-24T13:20:56.604Z,8.90
2023-10-24T13:23:23.591Z,8.10
2023-10-24T13:25:50.289Z,7.97
2023-10-24T13:28:17.324Z,15.15
2023-10-24T13:30:54.857Z,17.13
2023-10-24T13:33:31.490Z,20.98
2023-10-24T13:36:11.721Z,21.10
2023-10-24T13:38:39.947Z,19.80
2023-10-24T13:41:06.711Z,24.30
2023-10-24T13:43:34.545Z,23.75
2023-10-24T13:46:02.026Z,19.40
2023-10-24T13:48:31.886Z,18.92
2023-10-24T13:50:58.424Z,17.02
2023-10-24T13:53:25.041Z,17.98
2023-10-24T13:55:52.030Z,18.45
2023-10-24T13:58:18.747Z,17.27
2023-10-24T14:00:46.240Z,15.48
2023-10-24T14:03:14.656Z,19.33
2023-10-24T14:05:43.400Z,14.98
2023-10-24T14:08:09.934Z,18.98
2023-10-24T14:10:36.522Z,14.98
2023-10-24T14:13:04.232Z,16.05
2023-10-24T14:15:31.023Z,15.20
2023-10-24T14:18:00.979Z,13.55
2023-10-24T14:20:27.723Z,16.08
2023-10-24T14:22:54.391Z,16.52
2023-10-24T14:25:20.884Z,13.05
2023-10-24T14:27:47.344Z,13.93
2023-10-24T14:30:14.566Z,16.17
2023-10-24T14:32:41.181Z,15.05
2023-10-24T14:35:08.097Z,14.68
2023-10-24T14:37:34.830Z,14.30
2023-10-24T14:40:01.354Z,14.13
2023-10-24T14:42:28.105Z,12.48
2023-10-24T14:44:54.820Z,17.17
2023-10-24T14:47:21.677Z,14.38
2023-10-24T14:49:48.230Z,14.10
2023-10-24T14:52:15.856Z,14.48
2023-10-24T14:54:42.659Z,15.93
2023-10-24T14:57:11.489Z,12.63
2023-10-24T14:59:37.972Z,14.23
2023-10-24T15:02:05.841Z,13.05
2023-10-24T15:04:32.474Z,11.80
2023-10-24T15:06:58.959Z,12.52
2023-10-24T15:09:25.889Z,14.43
2023-10-24T15:11:52.643Z,14.60
2023-10-24T15:14:19.288Z,13.80
2023-10-24T15:16:45.940Z,24.00
2023-10-24T15:19:12.671Z,22.25
2023-10-24T15:21:39.462Z,23.73
2023-10-24T15:24:09.891Z,23.25
2023-10-24T15:26:36.612Z,17.80
2023-10-24T15:29:03.940Z,16.17
2023-10-24T15:31:30.478Z,15.57
2023-10-24T15:33:57.016Z,15.20
2023-10-24T15:36:23.609Z,14.52
2023-10-24T15:38:51.032Z,13.93
2023-10-24T15:41:17.831Z,14.00
2023-10-24T15:43:44.621Z,13.95
2023-10-24T15:46:17.425Z,17.13
2023-10-24T15:48:44.053Z,21.45
2023-10-24T15:51:10.581Z,18.77
2023-10-24T15:53:37.299Z,21.17
2023-10-24T15:56:08.025Z,19.90
2023-10-24T15:58:35.655Z,20.52
2023-10-24T16:01:13.231Z,23.58
2023-10-24T16:03:40.251Z,19.05
2023-10-24T16:06:07.327Z,17.48
2023-10-24T16:08:34.982Z,14.75
2023-10-24T16:11:01.639Z,21.45
2023-10-24T16:13:28.212Z,21.48
2023-10-24T16:15:54.826Z,17.48
2023-10-24T16:18:21.559Z,19.88
2023-10-24T16:20:48.208Z,20.48
2023-10-24T16:23:14.980Z,20.13
2023-10-24T16:25:41.494Z,18.40
2023-10-24T16:28:07.962Z,18.02
2023-10-24T16:30:34.401Z,16.27
2023-10-24T16:33:01.026Z,18.45
2023-10-24T16:35:27.653Z,19.13
2023-10-24T16:37:54.142Z,23.05
2023-10-24T16:40:20.591Z,18.25
2023-10-24T16:42:47.029Z,16.77
2023-10-24T16:45:13.658Z,20.45
2023-10-24T16:47:40.141Z,21.50
2023-10-24T16:50:07.148Z,20.58
2023-10-24T16:52:33.656Z,20.15
2023-10-24T16:55:00.135Z,17.20
2023-10-24T16:57:26.685Z,16.23
2023-10-24T16:59:53.233Z,15.15
2023-10-24T17:02:20.956Z,24.25
2023-10-24T17:04:47.605Z,19.05
2023-10-24T17:07:14.136Z,30.23
2023-10-24T17:09:42.303Z,24.42
2023-10-24T17:12:09.171Z,26.02
2023-10-24T17:14:35.789Z,31.83
2023-10-24T17:17:02.322Z,30.40
2023-10-24T17:19:28.830Z,30.50
2023-10-24T17:21:55.420Z,31.70
2023-10-24T17:24:21.886Z,37.22
2023-10-24T17:26:48.357Z,28.65
2023-10-24T17:29:14.897Z,27.45
2023-10-24T17:31:41.430Z,28.63
2023-10-24T17:34:09.977Z,19.80
2023-10-24T17:36:36.426Z,19.95
2023-10-24T17:39:02.997Z,22.15
2023-10-24T17:41:29.552Z,20.23
2023-10-24T17:43:57.115Z,20.15
2023-10-24T17:46:26.213Z,16.73
2023-10-24T17:48:54.668Z,18.70
2023-10-24T17:51:21.166Z,17.95
2023-10-24T17:53:47.638Z,16.52
2023-10-24T17:56:14.142Z,16.60
2023-10-24T17:58:40.825Z,15.60
2023-10-24T18:01:15.100Z,15.90
2023-10-24T18:03:41.735Z,14.38
2023-10-24T18:06:09.660Z,16.48
2023-10-24T18:08:36.329Z,17.67
2023-10-24T18:11:03.662Z,19.25
2023-10-24T18:13:30.189Z,17.85
2023-10-24T18:15:57.388Z,16.58
2023-10-24T18:18:23.962Z,18.60
2023-10-24T18:20:50.485Z,18.38
2023-10-24T18:23:17.781Z,18.02
2023-10-24T18:25:52.040Z,18.40
2023-10-24T18:28:19.293Z,18.38
2023-10-24T18:30:45.988Z,18.67
2023-10-24T18:33:12.643Z,21.95
2023-10-24T18:35:39.318Z,20.77
2023-10-24T18:38:05.778Z,16.23
2023-10-24T18:40:32.285Z,22.55
2023-10-24T18:42:58.754Z,18.92
2023-10-24T18:45:25.352Z,21.38
2023-10-24T18:47:52.109Z,19.20
2023-10-24T18:50:22.560Z,19.60
2023-10-24T18:52:52.220Z,21.58
2023-10-24T18:55:18.826Z,17.73
2023-10-24T18:57:45.345Z,20.05
2023-10-24T19:00:12.348Z,20.30
2023-10-24T19:02:38.827Z,19.98
2023-10-24T19:05:05.525Z,18.65
2023-10-24T19:07:32.027Z,18.77
2023-10-24T19:09:58.834Z,21.58
2023-10-24T19:12:25.869Z,22.98
2023-10-24T19:14:52.556Z,20.48
2023-10-24T19:17:19.372Z,23.40
2023-10-24T19:19:46.112Z,25.77
2023-10-24T19:22:13.090Z,28.08
2023-10-24T19:24:39.745Z,28.10
2023-10-24T19:27:06.797Z,31.23
2023-10-24T19:29:33.482Z,32.53
2023-10-24T19:32:00.334Z,27.48
2023-10-24T19:34:27.047Z,33.13
2023-10-24T19:36:55.420Z,28.80
2023-10-24T19:39:22.916Z,26.23
2023-10-24T19:41:50.435Z,35.58
2023-10-24T19:44:17.184Z,34.05
2023-10-24T19:46:47.224Z,42.35
2023-10-24T19:49:14.067Z,36.15
2023-10-24T19:51:40.860Z,37.42
2023-10-24T19:54:07.808Z,32.63
2023-10-24T19:56:35.440Z,37.55
2023-10-24T19:59:02.252Z,38.65
2023-10-24T20:01:32.338Z,35.47
2023-10-24T20:03:59.537Z,34.30
2023-10-24T20:06:32.527Z,40.85
2023-10-24T20:09:01.570Z,39.47
2023-10-24T20:12:34.544Z,36.72
2023-10-24T20:14:18.154Z,34.63
2023-10-24T20:16:49.134Z,32.22
2023-10-24T20:19:16.107Z,26.10
2023-10-24T20:21:42.799Z,34.25
2023-10-24T20:24:09.918Z,29.73
2023-10-24T20:26:37.291Z,25.48
2023-10-24T20:29:04.059Z,27.73
2023-10-24T20:31:30.607Z,24.48
2023-10-24T20:33:58.470Z,25.02
2023-10-24T20:36:25.032Z,31.00
2023-10-24T20:38:51.517Z,27.98
2023-10-24T20:41:19.014Z,26.10
2023-10-24T20:43:45.509Z,27.05
2023-10-24T20:46:12.012Z,21.70
2023-10-24T20:48:38.604Z,26.00
2023-10-24T20:51:05.131Z,27.48
2023-10-24T20:53:31.905Z,23.90
2023-10-24T20:55:59.208Z,31.88
2023-10-24T20:58:25.716Z,22.67
2023-10-24T21:00:52.937Z,25.45
2023-10-24T21:03:19.704Z,21.55
2023-10-24T21:05:46.298Z,21.83
2023-10-24T21:08:12.819Z,20.20
2023-10-24T21:10:39.485Z,22.85
2023-10-24T21:13:07.089Z,27.35
2023-10-24T21:15:33.698Z,23.42
2023-10-24T21:18:00.331Z,19.55
2023-10-24T21:20:26.846Z,21.45
2023-10-24T21:22:53.327Z,21.17
2023-10-24T21:25:20.742Z,23.27
2023-10-24T21:27:47.327Z,21.85
2023-10-24T21:30:13.900Z,23.45
2023-10-24T21:32:40.449Z,22.63
2023-10-24T21:35:07.360Z,20.30
2023-10-24T21:37:33.962Z,19.60
2023-10-24T21:40:00.524Z,20.98
2023-10-24T21:42:27.171Z,22.02
2023-10-24T21:44:53.651Z,22.45
2023-10-24T21:47:20.214Z,21.48
2023-10-24T21:49:46.698Z,19.98
2023-10-24T21:52:13.180Z,18.20
2023-10-24T21:54:39.797Z,19.25
2023-10-24T21:57:06.278Z,24.05
2023-10-24T21:59:32.717Z,18.83
2023-10-24T22:01:59.178Z,19.50
2023-10-24T22:04:25.857Z,21.48
2023-10-24T22:06:52.362Z,21.17
2023-10-24T22:09:19.078Z,20.25
2023-10-24T22:11:45.537Z,26.23
2023-10-24T22:14:12.105Z,28.45
2023-10-24T22:16:39.053Z,25.58
2023-10-24T22:19:05.743Z,26.25
2023-10-24T22:21:32.295Z,25.13
2023-10-24T22:23:58.791Z,27.05
2023-10-24T22:26:25.253Z,25.55
2023-10-24T22:28:51.786Z,24.55
2023-10-24T22:31:18.322Z,28.23
2023-10-24T22:33:44.856Z,26.88
2023-10-24T22:36:11.428Z,27.08
2023-10-24T22:38:37.873Z,34.17
2023-10-24T22:41:04.371Z,26.30
2023-10-24T22:43:32.991Z,25.10
2023-10-24T22:45:59.531Z,24.55
2023-10-24T22:48:26.080Z,28.95
2023-10-24T22:50:52.577Z,26.88
2023-10-24T22:53:19.049Z,28.63
2023-10-24T22:55:45.527Z,29.88
2023-10-24T22:58:12.070Z,35.70
2023-10-24T23:00:38.645Z,26.88
2023-10-24T23:03:05.337Z,25.30
2023-10-24T23:05:31.938Z,43.90
2023-10-24T23:07:58.385Z,46.05
2023-10-24T23:10:25.002Z,29.48
2023-10-24T23:12:51.534Z,31.65
2023-10-24T23:15:18.132Z,26.30
2023-10-24T23:17:44.642Z,25.58
2023-10-24T23:20:11.506Z,29.38
2023-10-24T23:22:37.957Z,60.92
2023-10-24T23:25:04.837Z,62.80
2023-10-24T23:27:31.469Z,54.00
2023-10-24T23:29:57.971Z,78.15
2023-10-24T23:32:24.544Z,50.33
2023-10-24T23:34:51.119Z,39.75
2023-10-24T23:37:17.593Z,32.47
2023-10-24T23:39:44.215Z,31.08
2023-10-24T23:42:11.306Z,66.72
2023-10-24T23:44:37.787Z,27.25
2023-10-24T23:47:04.548Z,29.90
2023-10-24T23:49:31.113Z,25.45
2023-10-24T23:51:57.641Z,25.58
2023-10-24T23:54:24.133Z,26.30
2023-10-24T23:56:50.572Z,51.50
2023-10-24T23:59:17.130Z,34.50
